Time;durP1;ratioP1;P1;durP2;ratioP2;P2;SDS_P1;SDS_P2;PMS_P1;PMS_P2;Temp;Humidity;BMP_temperature;BMP_pressure;BME280_temperature;BME280_humidity;BME280_pressure;Samples;Min_cycle;Max_cycle;Signal;HPM_P1;HPM_P2
2021/07/22 14:01:37;;;;;;;45.30;24.42;;;;;;;;;;3550187;39;105475;-63
2021/07/22 14:04:08;;;;;;;70.43;36.78;;;;;;;;;;3543832;39;105450;-61
2021/07/22 14:06:35;;;;;;;88.43;43.28;;;;;;;;;;3546725;39;107311;-60
2021/07/22 14:09:03;;;;;;;88.47;45.03;;;;;;;;;;3547206;39;107887;-59
2021/07/22 14:11:30;;;;;;;85.65;48.05;;;;;;;;;;3546886;39;106028;-59
2021/07/22 14:14:00;;;;;;;93.13;45.03;;;;;;;;;;3545324;39;105559;-60
2021/07/22 14:16:27;;;;;;;78.22;40.33;;;;;;;;;;3546929;39;106918;-61
2021/07/22 14:18:59;;;;;;;69.50;35.83;;;;;;;;;;3546445;39;108074;-61
2021/07/22 14:21:26;;;;;;;87.93;43.63;;;;;;;;;;3537621;39;105537;-62
2021/07/22 14:23:53;;;;;;;92.88;46.42;;;;;;;;;;3547225;39;105606;-60
2021/07/22 14:26:20;;;;;;;74.07;38.35;;;;;;;;;;3546623;39;106963;-61
2021/07/22 14:28:47;;;;;;;67.38;35.92;;;;;;;;;;3547620;39;107597;-61
2021/07/22 14:31:14;;;;;;;68.88;37.33;;;;;;;;;;3547600;39;105215;-62
2021/07/22 14:33:42;;;;;;;55.78;28.13;;;;;;;;;;3540760;39;105411;-61
2021/07/22 14:36:09;;;;;;;56.83;29.77;;;;;;;;;;3547267;39;106470;-62
2021/07/22 14:38:36;;;;;;;56.85;29.92;;;;;;;;;;3545871;39;107586;-62
2021/07/22 14:41:04;;;;;;;63.65;31.85;;;;;;;;;;3545369;39;105524;-61
2021/07/22 14:43:31;;;;;;;60.13;30.23;;;;;;;;;;3546971;39;105656;-62
2021/07/22 14:45:58;;;;;;;53.80;28.15;;;;;;;;;;3543386;39;106961;-61
2021/07/22 14:48:25;;;;;;;51.88;25.17;;;;;;;;;;3547574;39;107325;-65
2021/07/22 14:50:59;;;;;;;49.55;26.52;;;;;;;;;;3547720;39;105744;-62
2021/07/22 14:53:28;;;;;;;49.25;25.63;;;;;;;;;;3540248;39;105490;-62
2021/07/22 14:55:55;;;;;;;44.15;24.52;;;;;;;;;;3537081;39;106978;-62
2021/07/22 14:58:22;;;;;;;42.83;23.65;;;;;;;;;;3546533;39;107514;-65
2021/07/22 15:00:49;;;;;;;42.40;23.95;;;;;;;;;;3538482;39;105710;-63
2021/07/22 15:03:17;;;;;;;42.92;23.02;;;;;;;;;;3537366;39;105551;-63
2021/07/22 15:05:44;;;;;;;43.08;23.83;;;;;;;;;;3537490;39;106996;-63
2021/07/22 15:08:11;;;;;;;48.42;24.40;;;;;;;;;;3535933;39;107502;-64
2021/07/22 15:10:38;;;;;;;45.05;24.48;;;;;;;;;;3526604;39;106808;-60
2021/07/22 15:13:05;;;;;;;45.83;25.70;;;;;;;;;;3527561;39;106034;-60
2021/07/22 15:15:39;;;;;;;44.13;24.42;;;;;;;;;;3521300;39;106895;-62
2021/07/22 15:18:09;;;;;;;41.13;22.83;;;;;;;;;;3511377;40;107290;-61
2021/07/22 15:20:39;;;;;;;46.53;26.38;;;;;;;;;;3523225;39;105908;-62
2021/07/22 15:23:06;;;;;;;43.45;25.42;;;;;;;;;;3529837;39;105545;-64
2021/07/22 15:25:38;;;;;;;46.28;26.70;;;;;;;;;;3529211;39;107040;-66
2021/07/22 15:28:06;;;;;;;41.75;24.13;;;;;;;;;;3520345;39;106289;-64
2021/07/22 15:30:34;;;;;;;44.42;25.85;;;;;;;;;;3530085;39;105725;-67
2021/07/22 15:33:01;;;;;;;35.70;22.13;;;;;;;;;;3527889;39;105438;-67
2021/07/22 15:35:28;;;;;;;43.92;24.40;;;;;;;;;;3528978;39;106820;-68
2021/07/22 15:38:00;;;;;;;40.33;23.88;;;;;;;;;;3529635;39;106482;-63
2021/07/22 15:40:38;;;;;;;;;;;;;;;;;;;;;
2021/07/22 15:43:10;;;;;;;34.00;19.15;;;;;;;;;;3530033;39;105679;-64
2021/07/22 15:45:50;;;;;;;24.90;15.80;;;;;;;;;;3530722;39;106916;-64
2021/07/22 15:48:20;;;;;;;28.13;18.35;;;;;;;;;;3530342;39;107395;-63
2021/07/22 15:50:48;;;;;;;29.83;18.05;;;;;;;;;;3520157;39;105703;-63
2021/07/22 15:53:18;;;;;;;25.05;14.35;;;;;;;;;;3528585;39;105578;-60
2021/07/22 15:55:45;;;;;;;32.80;20.00;;;;;;;;;;3529598;39;106828;-63
2021/07/22 15:58:12;;;;;;;32.70;19.35;;;;;;;;;;3529400;39;107482;-63
2021/07/22 16:00:39;;;;;;;26.63;17.73;;;;;;;;;;3529918;39;105343;-61
2021/07/22 16:03:06;;;;;;;29.60;18.42;;;;;;;;;;3530211;39;105291;-61
2021/07/22 16:05:33;;;;;;;28.55;17.60;;;;;;;;;;3530473;39;106917;-61
2021/07/22 16:08:00;;;;;;;31.65;18.00;;;;;;;;;;3530543;39;107556;-61
2021/07/22 16:10:27;;;;;;;31.67;18.27;;;;;;;;;;3530461;39;105199;-61
2021/07/22 16:12:54;;;;;;;26.23;17.15;;;;;;;;;;3530479;39;105228;-62
2021/07/22 16:15:23;;;;;;;26.40;16.17;;;;;;;;;;3530141;39;107643;-60
2021/07/22 16:17:50;;;;;;;25.92;16.35;;;;;;;;;;3530320;39;108126;-59
2021/07/22 16:20:17;;;;;;;22.83;14.80;;;;;;;;;;3530323;39;105189;-61
2021/07/22 16:22:44;;;;;;;26.25;16.10;;;;;;;;;;3530110;39;105514;-59
2021/07/22 16:25:11;;;;;;;23.77;14.45;;;;;;;;;;3526692;39;106912;-61
2021/07/22 16:27:38;;;;;;;24.13;15.32;;;;;;;;;;3524549;39;107506;-58
2021/07/22 16:30:06;;;;;;;24.83;15.38;;;;;;;;;;3521616;39;105195;-59
2021/07/22 16:32:33;;;;;;;24.27;14.43;;;;;;;;;;3521639;39;105398;-61
2021/07/22 16:35:00;;;;;;;23.52;14.50;;;;;;;;;;3528060;39;107163;-59
2021/07/22 16:37:27;;;;;;;22.65;13.20;;;;;;;;;;3523116;39;107479;-61
2021/07/22 16:39:58;;;;;;;23.92;13.75;;;;;;;;;;3529654;39;106677;-59
2021/07/22 16:42:25;;;;;;;19.38;13.60;;;;;;;;;;3512305;40;105349;-61
2021/07/22 16:44:54;;;;;;;22.90;12.98;;;;;;;;;;3522430;39;106908;-59
2021/07/22 16:47:23;;;;;;;19.45;12.63;;;;;;;;;;3520529;39;107630;-59
2021/07/22 16:49:50;;;;;;;20.75;12.30;;;;;;;;;;3530589;39;105390;-60
2021/07/22 16:52:18;;;;;;;20.48;12.15;;;;;;;;;;3529797;39;105619;-61
2021/07/22 16:54:46;;;;;;;21.90;12.27;;;;;;;;;;3520872;39;107034;-58
2021/07/22 16:57:13;;;;;;;21.58;11.77;;;;;;;;;;3530236;39;107531;-58
2021/07/22 16:59:40;;;;;;;16.30;11.38;;;;;;;;;;3528699;39;105600;-59
2021/07/22 17:02:09;;;;;;;18.35;11.43;;;;;;;;;;3523152;39;105454;-59
2021/07/22 17:04:36;;;;;;;17.10;10.82;;;;;;;;;;3523831;39;107057;-59
2021/07/22 17:07:03;;;;;;;16.50;10.57;;;;;;;;;;3524552;39;107701;-60
2021/07/22 17:09:30;;;;;;;15.85;10.77;;;;;;;;;;3523008;39;105656;-59
2021/07/22 17:11:58;;;;;;;15.18;9.38;;;;;;;;;;3526079;39;106984;-60
2021/07/22 17:14:28;;;;;;;;;;;;;;;;;;3530477;39;106848;-60
2021/07/22 17:16:55;;;;;;;15.15;9.68;;;;;;;;;;3529049;39;137085;-59
2021/07/22 17:19:22;;;;;;;15.45;9.40;;;;;;;;;;3529702;39;105302;-59
2021/07/22 17:21:49;;;;;;;14.68;9.75;;;;;;;;;;3529732;39;105242;-59
2021/07/22 17:24:17;;;;;;;14.77;9.10;;;;;;;;;;3529651;39;106878;-59
2021/07/22 17:26:44;;;;;;;14.52;8.80;;;;;;;;;;3529397;39;107050;-59
2021/07/22 17:29:10;;;;;;;15.40;9.40;;;;;;;;;;3530021;39;105284;-60
2021/07/22 17:31:37;;;;;;;13.55;8.88;;;;;;;;;;3529836;39;105639;-60
2021/07/22 17:34:05;;;;;;;14.30;8.88;;;;;;;;;;3529414;39;106813;-60
2021/07/22 17:36:31;;;;;;;12.65;8.23;;;;;;;;;;3529569;39;107850;-58
2021/07/22 17:39:01;;;;;;;13.02;8.43;;;;;;;;;;3529866;39;105381;-60
2021/07/22 17:41:28;;;;;;;12.35;8.20;;;;;;;;;;3526823;39;106339;-60
2021/07/22 17:43:55;;;;;;;12.88;7.78;;;;;;;;;;3522567;39;106817;-59
2021/07/22 17:46:22;;;;;;;14.35;8.55;;;;;;;;;;3519328;40;107501;-58
2021/07/22 17:48:50;;;;;;;13.85;8.50;;;;;;;;;;3519374;40;105530;-66
2021/07/22 17:51:22;;;;;;;16.85;10.15;;;;;;;;;;3522245;39;105618;-66
2021/07/22 17:53:51;;;;;;;15.25;9.82;;;;;;;;;;3519423;39;105770;-64
2021/07/22 17:56:19;;;;;;;15.27;9.82;;;;;;;;;;3520418;39;107369;-66
2021/07/22 17:58:46;;;;;;;14.52;9.40;;;;;;;;;;3526506;39;105532;-65
2021/07/22 18:01:13;;;;;;;14.90;9.35;;;;;;;;;;3529310;39;105462;-63
2021/07/22 18:03:40;;;;;;;15.45;9.25;;;;;;;;;;3528726;39;106901;-60
2021/07/22 18:06:07;;;;;;;16.27;9.68;;;;;;;;;;3528986;39;107637;-60
2021/07/22 18:08:34;;;;;;;14.85;8.82;;;;;;;;;;3528299;39;105530;-65
2021/07/22 18:11:07;;;;;;;15.80;8.52;;;;;;;;;;3529585;39;105295;-64
2021/07/22 18:13:34;;;;;;;12.98;8.45;;;;;;;;;;3529304;39;106875;-65
2021/07/22 18:16:02;;;;;;;14.98;10.05;;;;;;;;;;3529281;39;107474;-64
2021/07/22 18:18:33;;;;;;;40.13;19.70;;;;;;;;;;3513856;40;106892;-65
2021/07/22 18:21:01;;;;;;;;;;;;;;;;;;3523265;39;105497;-66
2021/07/22 18:23:28;;;;;;;62.42;28.20;;;;;;;;;;3523397;39;136284;-66
2021/07/22 18:25:56;;;;;;;67.30;31.77;;;;;;;;;;3528722;39;107674;-67
2021/07/22 18:28:24;;;;;;;65.40;34.25;;;;;;;;;;3524683;39;105928;-66
2021/07/22 18:31:00;;;;;;;62.75;31.50;;;;;;;;;;3518991;40;105376;-63
2021/07/22 18:33:47;;;;;;;54.22;27.70;;;;;;;;;;3523562;39;106711;-63
2021/07/22 18:36:56;;;;;;;40.88;21.75;;;;;;;;;;3527741;39;107454;-62
2021/07/22 18:39:24;;;;;;;48.97;25.27;;;;;;;;;;3483173;40;105544;-62
2021/07/22 18:41:52;;;;;;;38.88;21.27;;;;;;;;;;3487300;40;105433;-63
2021/07/22 18:44:19;;;;;;;24.35;13.85;;;;;;;;;;3505872;39;106923;-63
2021/07/22 18:46:46;;;;;;;21.30;11.68;;;;;;;;;;3520402;39;107561;-67
2021/07/22 18:49:13;;;;;;;22.05;11.65;;;;;;;;;;3520923;39;105686;-66
2021/07/22 18:51:40;;;;;;;21.13;11.88;;;;;;;;;;3527409;39;105910;-68
2021/07/22 18:54:07;;;;;;;22.95;13.38;;;;;;;;;;3525242;39;106356;-68
2021/07/22 18:56:35;;;;;;;21.20;11.80;;;;;;;;;;3520286;39;108019;-66
2021/07/22 18:59:02;;;;;;;17.08;10.82;;;;;;;;;;3520102;40;105606;-66
2021/07/22 19:01:30;;;;;;;17.08;11.30;;;;;;;;;;3533086;39;105725;-63
2021/07/22 19:03:58;;;;;;;15.13;9.57;;;;;;;;;;3538964;39;105818;-63
2021/07/22 19:06:24;;;;;;;17.13;9.50;;;;;;;;;;3538657;39;107687;-64
2021/07/22 19:08:52;;;;;;;15.05;8.27;;;;;;;;;;3540151;39;105227;-62
2021/07/22 19:11:21;;;;;;;12.55;8.00;;;;;;;;;;3540113;39;105314;-61
2021/07/22 19:13:48;;;;;;;13.38;8.27;;;;;;;;;;3540162;39;106870;-62
2021/07/22 19:16:15;;;;;;;13.93;8.38;;;;;;;;;;3540139;39;107472;-61
2021/07/22 19:18:42;;;;;;;12.48;7.13;;;;;;;;;;3540511;39;105332;-61
2021/07/22 19:21:09;;;;;;;10.82;6.90;;;;;;;;;;3540123;39;105402;-62
2021/07/22 19:23:37;;;;;;;11.98;7.15;;;;;;;;;;3540101;39;106895;-62
2021/07/22 19:26:03;;;;;;;9.13;5.97;;;;;;;;;;3540048;39;107582;-63
2021/07/22 19:28:30;;;;;;;11.38;6.80;;;;;;;;;;3532854;39;105442;-60
2021/07/22 19:30:57;;;;;;;9.95;6.45;;;;;;;;;;3531676;39;105969;-62
2021/07/22 19:33:26;;;;;;;11.93;6.55;;;;;;;;;;3529992;39;107170;-61
2021/07/22 19:35:52;;;;;;;10.82;6.32;;;;;;;;;;3529985;39;108102;-62
2021/07/22 19:38:19;;;;;;;10.65;6.65;;;;;;;;;;3530396;39;105666;-62
2021/07/22 19:40:46;;;;;;;10.63;6.70;;;;;;;;;;3530000;39;105983;-63
2021/07/22 19:43:13;;;;;;;8.82;5.88;;;;;;;;;;3529986;39;106864;-63
2021/07/22 19:45:40;;;;;;;11.32;5.97;;;;;;;;;;3530213;39;107513;-62
2021/07/22 19:48:07;;;;;;;8.70;5.57;;;;;;;;;;3530036;39;105270;-61
2021/07/22 19:50:34;;;;;;;8.50;5.68;;;;;;;;;;3530295;39;105340;-60
2021/07/22 19:53:02;;;;;;;9.25;5.50;;;;;;;;;;3530096;39;107042;-61
2021/07/22 19:55:32;;;;;;;;;;;;;;;;;;3530286;39;107905;-62
2021/07/22 19:58:00;;;;;;;10.50;5.50;;;;;;;;;;3529413;39;130537;-61
2021/07/22 20:00:28;;;;;;;8.90;5.38;;;;;;;;;;3524710;39;105599;-62
2021/07/22 20:02:55;;;;;;;8.05;5.35;;;;;;;;;;3519771;40;106878;-62
2021/07/22 20:05:22;;;;;;;8.48;5.40;;;;;;;;;;3520019;40;107837;-61
2021/07/22 20:07:50;;;;;;;8.50;5.25;;;;;;;;;;3520021;40;105587;-63
2021/07/22 20:10:17;;;;;;;8.20;4.68;;;;;;;;;;3520100;40;105226;-62
2021/07/22 20:12:45;;;;;;;6.93;4.60;;;;;;;;;;3520071;40;106787;-63
2021/07/22 20:15:12;;;;;;;11.45;5.20;;;;;;;;;;3519828;40;107507;-61
2021/07/22 20:17:39;;;;;;;8.88;4.60;;;;;;;;;;3520411;40;105348;-60
2021/07/22 20:20:07;;;;;;;6.90;4.78;;;;;;;;;;3520037;40;105501;-61
2021/07/22 20:22:34;;;;;;;7.70;5.03;;;;;;;;;;3519509;40;106931;-62
2021/07/22 20:25:01;;;;;;;7.68;4.75;;;;;;;;;;3520079;40;107523;-61
2021/07/22 20:27:28;;;;;;;7.22;4.50;;;;;;;;;;3519940;40;105161;-63
2021/07/22 20:29:55;;;;;;;9.95;4.95;;;;;;;;;;3519880;40;105295;-63
2021/07/22 20:32:22;;;;;;;12.55;4.90;;;;;;;;;;3518724;39;107156;-68
2021/07/22 20:34:49;;;;;;;6.53;4.55;;;;;;;;;;3518843;40;107632;-67
2021/07/22 20:37:20;;;;;;;5.55;4.38;;;;;;;;;;3520114;39;105364;-67
2021/07/22 20:39:47;;;;;;;9.02;4.72;;;;;;;;;;3524080;39;105394;-71
2021/07/22 20:42:14;;;;;;;8.05;4.88;;;;;;;;;;3525612;39;106840;-67
2021/07/22 20:44:42;;;;;;;6.45;4.15;;;;;;;;;;3524257;39;107848;-69
2021/07/22 20:47:10;;;;;;;7.15;4.22;;;;;;;;;;3514560;39;105655;-68
2021/07/22 20:49:37;;;;;;;7.90;4.65;;;;;;;;;;3524633;39;105597;-67
2021/07/22 20:52:04;;;;;;;6.75;4.68;;;;;;;;;;3518387;39;106919;-65
2021/07/22 20:54:31;;;;;;;6.88;4.88;;;;;;;;;;3528511;39;107746;-66
2021/07/22 20:56:58;;;;;;;7.07;4.95;;;;;;;;;;3529256;39;105268;-68
2021/07/22 20:59:25;;;;;;;6.93;4.57;;;;;;;;;;3529119;39;105771;-65
2021/07/22 21:01:53;;;;;;;6.32;4.68;;;;;;;;;;3527739;39;107154;-70
2021/07/22 21:04:20;;;;;;;7.82;4.72;;;;;;;;;;3519360;40;107582;-69
2021/07/22 21:06:47;;;;;;;6.85;4.45;;;;;;;;;;3519416;40;105415;-69
2021/07/22 21:09:14;;;;;;;8.52;5.00;;;;;;;;;;3519070;40;105510;-62
2021/07/22 21:11:41;;;;;;;6.00;4.80;;;;;;;;;;3519048;40;106840;-66
2021/07/22 21:14:09;;;;;;;5.85;4.40;;;;;;;;;;3519365;40;108414;-69
2021/07/22 21:16:36;;;;;;;6.18;4.78;;;;;;;;;;3519463;40;105848;-68
2021/07/22 21:19:03;;;;;;;6.70;4.60;;;;;;;;;;3526797;39;105290;-67
2021/07/22 21:21:30;;;;;;;8.88;4.95;;;;;;;;;;3528526;39;107196;-67
2021/07/22 21:23:59;;;;;;;6.93;4.80;;;;;;;;;;3519909;39;107864;-68
2021/07/22 21:26:25;;;;;;;5.45;4.45;;;;;;;;;;3525553;39;105643;-64
2021/07/22 21:28:54;;;;;;;6.03;4.50;;;;;;;;;;3519408;40;105317;-65
2021/07/22 21:31:21;;;;;;;6.07;4.93;;;;;;;;;;3519456;40;106846;-75
2021/07/22 21:33:48;;;;;;;6.20;4.97;;;;;;;;;;3519493;40;107298;-66
2021/07/22 21:36:15;;;;;;;7.10;5.30;;;;;;;;;;3519640;40;105216;-64
2021/07/22 21:38:42;;;;;;;6.65;4.90;;;;;;;;;;3519585;40;105280;-61
2021/07/22 21:41:13;;;;;;;6.38;4.50;;;;;;;;;;3519498;40;106810;-61
2021/07/22 21:43:40;;;;;;;7.20;4.22;;;;;;;;;;3519407;40;107886;-60
2021/07/22 21:46:06;;;;;;;9.68;5.30;;;;;;;;;;3519560;40;105319;-59
2021/07/22 21:48:34;;;;;;;5.43;4.43;;;;;;;;;;3519612;40;106147;-61
2021/07/22 21:51:01;;;;;;;6.65;4.55;;;;;;;;;;3522087;39;106886;-61
2021/07/22 21:53:28;;;;;;;5.05;4.03;;;;;;;;;;3522980;39;107569;-60
2021/07/22 21:55:55;;;;;;;5.55;4.15;;;;;;;;;;3524214;39;105285;-59
2021/07/22 21:58:27;;;;;;;7.25;4.95;;;;;;;;;;3529370;39;105181;-65
2021/07/22 22:00:57;;;;;;;5.13;4.10;;;;;;;;;;3529721;39;106852;-65
2021/07/22 22:03:24;;;;;;;4.32;3.80;;;;;;;;;;3529181;39;107652;-65
2021/07/22 22:05:52;;;;;;;4.45;3.63;;;;;;;;;;3529453;39;105691;-61
2021/07/22 22:08:19;;;;;;;4.72;3.88;;;;;;;;;;3512356;39;105822;-62
2021/07/22 22:10:46;;;;;;;5.28;3.75;;;;;;;;;;3522118;39;106854;-61
2021/07/22 22:13:13;;;;;;;4.57;3.63;;;;;;;;;;3522831;39;107647;-62
2021/07/22 22:15:40;;;;;;;6.32;4.32;;;;;;;;;;3523581;39;105702;-62
2021/07/22 22:18:07;;;;;;;4.70;3.95;;;;;;;;;;3522935;39;105391;-60
2021/07/22 22:20:34;;;;;;;5.57;3.90;;;;;;;;;;3519811;39;106201;-61
2021/07/22 22:23:01;;;;;;;4.75;3.65;;;;;;;;;;3528330;39;107606;-60
2021/07/22 22:25:28;;;;;;;4.97;4.20;;;;;;;;;;3524381;39;105571;-62
2021/07/22 22:27:55;;;;;;;6.18;4.07;;;;;;;;;;3524632;39;105526;-61
2021/07/22 22:30:22;;;;;;;5.43;4.20;;;;;;;;;;3524797;39;106937;-62
2021/07/22 22:32:49;;;;;;;4.85;4.25;;;;;;;;;;3524244;39;107964;-62
2021/07/22 22:35:16;;;;;;;4.30;3.90;;;;;;;;;;3523718;39;105452;-61
2021/07/22 22:37:43;;;;;;;4.72;3.90;;;;;;;;;;3524187;39;105450;-61
2021/07/22 22:40:11;;;;;;;5.25;4.32;;;;;;;;;;3524112;39;107045;-61
2021/07/22 22:42:38;;;;;;;5.38;4.30;;;;;;;;;;3524381;39;107590;-61
2021/07/22 22:45:09;;;;;;;4.63;4.22;;;;;;;;;;3524036;39;105745;-61
2021/07/22 22:47:36;;;;;;;5.35;4.30;;;;;;;;;;3523824;39;106000;-61
2021/07/22 22:50:03;;;;;;;5.88;4.55;;;;;;;;;;3523850;39;106825;-60
2021/07/22 22:52:30;;;;;;;6.03;4.82;;;;;;;;;;3524091;39;107439;-61
2021/07/22 22:54:57;;;;;;;5.13;4.43;;;;;;;;;;3524692;39;105339;-61
2021/07/22 22:57:24;;;;;;;5.40;4.63;;;;;;;;;;3523742;39;105359;-61
2021/07/22 22:59:51;;;;;;;6.25;4.60;;;;;;;;;;3523998;39;107407;-61
2021/07/22 23:02:18;;;;;;;6.25;4.50;;;;;;;;;;3524527;39;107841;-62
2021/07/22 23:04:45;;;;;;;6.53;4.60;;;;;;;;;;3524072;39;105376;-61
2021/07/22 23:07:12;;;;;;;6.05;4.20;;;;;;;;;;3524141;39;105582;-61
2021/07/22 23:09:40;;;;;;;6.40;4.50;;;;;;;;;;3515291;39;107015;-62
2021/07/22 23:12:08;;;;;;;5.60;4.10;;;;;;;;;;3524204;39;107470;-61
2021/07/22 23:14:35;;;;;;;6.03;4.82;;;;;;;;;;3515634;39;105805;-60
2021/07/22 23:17:02;;;;;;;4.95;4.13;;;;;;;;;;3523713;39;105378;-62
2021/07/22 23:19:29;;;;;;;5.70;4.70;;;;;;;;;;3526541;39;107439;-60
2021/07/22 23:21:55;;;;;;;5.38;4.45;;;;;;;;;;3525163;39;107485;-62
2021/07/22 23:24:23;;;;;;;6.93;4.85;;;;;;;;;;3524231;39;107185;-62
2021/07/22 23:26:51;;;;;;;6.75;4.85;;;;;;;;;;3525067;39;105615;-63
2021/07/22 23:29:22;;;;;;;7.95;4.82;;;;;;;;;;3524242;39;106343;-61
2021/07/22 23:31:49;;;;;;;5.93;4.95;;;;;;;;;;3524277;39;107984;-61
2021/07/22 23:34:16;;;;;;;6.10;5.15;;;;;;;;;;3525407;39;105440;-61
2021/07/22 23:36:43;;;;;;;5.80;5.10;;;;;;;;;;3525031;39;105156;-62
2021/07/22 23:39:11;;;;;;;5.97;4.88;;;;;;;;;;3524172;39;106823;-63
2021/07/22 23:41:38;;;;;;;5.85;4.72;;;;;;;;;;3525231;39;107554;-62
2021/07/22 23:44:05;;;;;;;7.32;5.07;;;;;;;;;;3524773;39;105614;-62
2021/07/22 23:46:32;;;;;;;6.95;5.07;;;;;;;;;;3524257;39;105537;-61
2021/07/22 23:48:58;;;;;;;5.90;5.30;;;;;;;;;;3524474;39;106877;-61
2021/07/22 23:51:25;;;;;;;6.18;5.22;;;;;;;;;;3525155;39;107666;-61
2021/07/22 23:53:52;;;;;;;7.50;5.30;;;;;;;;;;3527989;39;105427;-62
2021/07/22 23:56:20;;;;;;;6.80;5.55;;;;;;;;;;3526391;39;105425;-62
2021/07/22 23:58:47;;;;;;;6.72;5.30;;;;;;;;;;3523657;39;106992;-61
